Time;durP1;ratioP1;P1;durP2;ratioP2;P2;SDS_P1;SDS_P2;PMS_P1;PMS_P2;Temp;Humidity;BMP_temperature;BMP_pressure;BME280_temperature;BME280_humidity;BME280_pressure;Samples;Min_cycle;Max_cycle;Signal;HPM_P1;HPM_P2
2023/03/23 00:01:40;;;;;;;7.40;5.37;;;;;;;7.82;100.00;95894.66;5010804;28;102806;-61
2023/03/23 00:04:07;;;;;;;7.23;5.40;;;;;;;7.87;100.00;95891.25;5009918;28;101970;-62
2023/03/23 00:06:34;;;;;;;6.07;5.47;;;;;;;7.90;100.00;95888.13;5029619;28;102321;-61
2023/03/23 00:09:03;;;;;;;8.00;4.80;;;;;;;7.95;100.00;95888.16;5029157;28;105814;-61
2023/03/23 00:11:33;;;;;;;6.77;5.37;;;;;;;7.87;100.00;95893.91;5012463;28;102057;-61
2023/03/23 00:14:47;;;;;;;7.03;5.10;;;;;;;7.65;100.00;95893.88;4993764;28;102341;-61
2023/03/23 00:17:14;;;;;;;6.20;4.93;;;;;;;7.39;100.00;95891.09;4989830;28;101828;-61
2023/03/23 00:19:46;;;;;;;6.10;5.13;;;;;;;7.40;100.00;95888.22;5002740;28;102874;-61
2023/03/23 00:22:14;;;;;;;5.57;4.47;;;;;;;7.37;100.00;95895.84;5010474;28;103039;-61
2023/03/23 00:24:46;;;;;;;5.33;4.67;;;;;;;7.39;100.00;95888.47;5010802;28;101851;-61
2023/03/23 00:27:15;;;;;;;5.97;4.43;;;;;;;7.41;100.00;95891.69;5009396;28;105759;-61
2023/03/23 00:29:44;;;;;;;6.03;4.33;;;;;;;7.54;100.00;95888.69;5010128;28;102958;-61
2023/03/23 00:32:14;;;;;;;6.03;4.63;;;;;;;7.57;100.00;95883.69;5009548;28;101889;-61
2023/03/23 00:34:49;;;;;;;7.33;5.17;;;;;;;7.40;100.00;95885.56;5010727;28;102483;-61
2023/03/23 00:37:17;;;;;;;5.40;4.20;;;;;;;7.43;100.00;95879.00;5012168;28;103867;-61
2023/03/23 00:39:45;;;;;;;5.40;4.47;;;;;;;7.39;100.00;95875.22;5009209;28;105559;-61
2023/03/23 00:42:13;;;;;;;5.43;4.43;;;;;;;7.37;100.00;95879.97;5008735;28;105458;-61
2023/03/23 00:44:49;;;;;;;7.47;4.80;;;;;;;7.39;100.00;95872.59;5010331;28;102152;-61
2023/03/23 00:47:17;;;;;;;5.10;4.60;;;;;;;7.42;100.00;95870.25;5010740;28;102373;-61
2023/03/23 00:49:44;;;;;;;7.27;4.70;;;;;;;7.56;100.00;95862.78;5010142;28;102498;-61
2023/03/23 00:52:11;;;;;;;5.73;4.37;;;;;;;7.53;100.00;95863.28;5009151;28;102283;-61
2023/03/23 00:54:54;;;;;;;5.30;3.97;;;;;;;7.55;100.00;95866.47;5008847;28;103992;-61
2023/03/23 00:57:23;;;;;;;5.63;4.13;;;;;;;7.52;100.00;95856.38;5008892;28;105927;-61
2023/03/23 00:59:52;;;;;;;4.90;4.40;;;;;;;7.39;100.00;95856.72;5033842;27;101844;-61
2023/03/23 01:02:19;;;;;;;5.47;4.27;;;;;;;7.42;100.00;95859.66;5031129;28;104466;-61
2023/03/23 01:04:47;;;;;;;4.77;4.10;;;;;;;7.34;100.00;95854.00;5032713;28;101840;-61
2023/03/23 01:07:14;;;;;;;4.63;4.10;;;;;;;7.42;100.00;95854.38;5031834;28;105397;-61
2023/03/23 01:09:44;;;;;;;4.17;3.60;;;;;;;7.15;100.00;95850.81;5031813;28;105737;-61
2023/03/23 01:12:14;;;;;;;5.67;4.10;;;;;;;7.09;100.00;95851.78;5032324;28;101753;-61
2023/03/23 01:14:42;;;;;;;5.03;3.90;;;;;;;7.16;100.00;95843.69;5033816;28;102525;-61
2023/03/23 01:17:11;;;;;;;5.17;3.93;;;;;;;7.17;100.00;95851.38;5030326;28;106103;-61
2023/03/23 01:19:39;;;;;;;4.90;4.40;;;;;;;7.31;100.00;95842.06;5033100;27;102220;-61
2023/03/23 01:22:06;;;;;;;5.90;4.67;;;;;;;7.34;100.00;95844.22;5027262;27;102252;-61
2023/03/23 01:24:34;;;;;;;5.53;4.60;;;;;;;7.47;100.00;95837.81;5027569;28;101905;-61
2023/03/23 01:27:06;;;;;;;4.23;3.67;;;;;;;7.62;100.00;95835.34;5029249;28;105632;-61
2023/03/23 01:29:33;;;;;;;5.87;3.37;;;;;;;7.82;100.00;95830.31;5019744;28;102562;-61
2023/03/23 01:32:01;;;;;;;5.93;3.67;;;;;;;7.90;100.00;95832.53;5033644;27;101916;-61
2023/03/23 01:34:48;;;;;;;4.37;3.37;;;;;;;8.11;100.00;95834.34;5031751;28;105357;-61
2023/03/23 01:37:16;;;;;;;4.23;3.53;;;;;;;8.21;100.00;95818.59;5031044;28;105359;-61
2023/03/23 01:39:44;;;;;;;3.33;3.07;;;;;;;8.32;100.00;95807.06;5032176;28;101976;-61
2023/03/23 01:42:11;;;;;;;3.83;3.00;;;;;;;8.27;100.00;95813.13;5030567;28;104840;-61
2023/03/23 01:45:30;;;;;;;3.07;2.80;;;;;;;8.42;100.00;95809.81;5032075;28;101870;-61
2023/03/23 01:48:10;;;;;;;4.63;2.50;;;;;;;8.72;100.00;95816.19;5001225;28;105057;-61
2023/03/23 01:50:47;;;;;;;3.43;3.13;;;;;;;8.68;100.00;95804.47;5018404;28;102616;-61
2023/03/23 01:53:21;;;;;;;5.03;3.10;;;;;;;8.70;100.00;95804.22;5031784;28;102002;-61
2023/03/23 01:55:51;;;;;;;2.80;2.60;;;;;;;8.67;100.00;95802.88;5026456;27;102405;-61
2023/03/23 01:58:25;;;;;;;5.10;3.07;;;;;;;8.46;100.00;95801.09;5011448;28;105434;-61
2023/03/23 02:00:54;;;;;;;3.97;2.57;;;;;;;8.65;100.00;95791.75;5019171;28;101830;-61
2023/03/23 02:03:23;;;;;;;3.90;2.70;;;;;;;8.66;100.00;95795.19;5031853;28;104795;-61
2023/03/23 02:05:52;;;;;;;2.60;2.40;;;;;;;8.67;100.00;95810.06;5033012;28;105916;-61
2023/03/23 02:08:29;;;;;;;3.37;2.30;;;;;;;8.84;100.00;95795.59;5031381;28;104440;-61
2023/03/23 02:10:56;;;;;;;3.07;2.73;;;;;;;8.86;100.00;95790.88;5029387;28;105425;-61
2023/03/23 02:13:27;;;;;;;3.93;2.77;;;;;;;8.83;100.00;95799.31;5031459;27;101878;-61
2023/03/23 02:16:04;;;;;;;2.60;2.40;;;;;;;8.80;100.00;95801.69;5031553;28;105312;-61
2023/03/23 02:18:44;;;;;;;2.87;2.17;;;;;;;8.85;100.00;95799.88;5030001;28;104455;-61
2023/03/23 02:21:34;;;;;;;2.97;2.47;;;;;;;8.84;100.00;95786.88;5031568;28;101753;-61
2023/03/23 02:24:55;;;;;;;2.63;2.43;;;;;;;8.72;100.00;95805.59;5031118;28;105477;-61
2023/03/23 02:27:44;;;;;;;4.53;2.37;;;;;;;8.92;100.00;95799.63;4969365;28;105444;-61
2023/03/23 02:30:43;;;;;;;2.47;2.27;;;;;;;8.93;100.00;95799.41;4977011;28;101790;-61
2023/03/23 02:33:33;;;;;;;3.70;2.50;;;;;;;8.85;100.00;95804.38;4965853;28;105659;-61
2023/03/23 02:36:05;;;;;;;2.73;2.53;;;;;;;8.82;100.00;95805.66;4958496;28;102158;-61
2023/03/23 02:38:36;;;;;;;2.80;2.60;;;;;;;8.84;100.00;95808.84;4973696;28;104821;-61
2023/03/23 02:41:05;;;;;;;3.20;2.90;;;;;;;8.89;100.00;95810.78;4972578;28;105746;-61
2023/03/23 02:43:37;;;;;;;3.27;2.77;;;;;;;8.85;100.00;95813.13;4973292;28;102194;-61
2023/03/23 02:46:09;;;;;;;2.70;2.40;;;;;;;8.89;100.00;95816.06;4951059;28;102887;-61
2023/03/23 02:48:42;;;;;;;3.60;2.50;;;;;;;8.93;100.00;95814.50;4934552;28;105792;-61
2023/03/23 02:51:10;;;;;;;3.20;2.90;;;;;;;8.99;100.00;95818.81;4970201;28;102937;-61
2023/03/23 02:53:42;;;;;;;4.37;2.60;;;;;;;8.99;100.00;95816.16;4956447;28;105677;-61
2023/03/23 02:56:13;;;;;;;4.07;3.00;;;;;;;9.03;100.00;95812.72;4953841;28;101860;-61
2023/03/23 02:58:40;;;;;;;3.27;2.97;;;;;;;9.02;100.00;95816.44;4997547;28;105227;-61
2023/03/23 03:01:50;;;;;;;3.60;3.30;;;;;;;8.98;100.00;95814.53;5030300;28;105511;-61
2023/03/23 03:04:21;;;;;;;4.47;2.80;;;;;;;8.99;100.00;95808.19;5030801;28;101923;-61
2023/03/23 03:07:17;;;;;;;4.10;3.20;;;;;;;8.97;100.00;95813.75;5031002;28;103829;-61
2023/03/23 03:09:50;;;;;;;3.80;3.30;;;;;;;8.96;100.00;95817.47;5051257;27;105855;-61
2023/03/23 03:12:25;;;;;;;3.57;3.27;;;;;;;8.88;100.00;95811.81;5010864;28;101821;-61
2023/03/23 03:15:14;;;;;;;2.77;2.57;;;;;;;8.75;100.00;95825.47;5029401;28;102321;-61
2023/03/23 03:17:47;;;;;;;3.40;3.10;;;;;;;8.41;100.00;95821.47;5033405;28;105907;-61
2023/03/23 03:20:17;;;;;;;3.50;3.10;;;;;;;8.25;100.00;95819.72;5016727;28;104966;-61
2023/03/23 03:22:47;;;;;;;3.13;2.93;;;;;;;8.25;100.00;95809.13;5009972;28;105566;-61
2023/03/23 03:25:16;;;;;;;3.80;3.50;;;;;;;8.17;100.00;95828.06;5023582;28;102315;-61
2023/03/23 03:27:49;;;;;;;4.67;4.17;;;;;;;7.89;100.00;95828.25;5030679;28;104877;-61
2023/03/23 03:30:28;;;;;;;4.40;4.00;;;;;;;7.94;100.00;95823.03;5028970;28;105613;-61
2023/03/23 03:33:04;;;;;;;6.03;4.70;;;;;;;7.92;100.00;95820.63;5010557;28;101831;-61
2023/03/23 03:35:38;;;;;;;6.27;4.57;;;;;;;7.90;100.00;95820.09;5010265;28;103716;-61
2023/03/23 03:38:08;;;;;;;6.47;4.20;;;;;;;7.73;100.00;95815.91;5009990;28;105208;-61
2023/03/23 03:40:35;;;;;;;6.70;4.17;;;;;;;7.76;100.00;95820.72;5025745;28;101873;-61
2023/03/23 03:43:02;;;;;;;3.37;3.17;;;;;;;7.61;100.00;95820.50;5029735;28;105712;-61
2023/03/23 03:45:29;;;;;;;4.67;3.70;;;;;;;7.60;100.00;95824.22;5028565;28;101822;-61
2023/03/23 03:47:56;;;;;;;4.07;3.77;;;;;;;7.64;100.00;95827.97;5030226;28;105004;-61
2023/03/23 03:50:23;;;;;;;4.43;3.63;;;;;;;7.65;100.00;95824.28;5015854;28;105142;-61
2023/03/23 03:53:09;;;;;;;4.40;4.00;;;;;;;7.71;100.00;95825.94;5009930;28;101988;-61
2023/03/23 03:55:38;;;;;;;4.40;4.00;;;;;;;7.63;100.00;95821.88;5009854;28;103799;-61
2023/03/23 03:58:08;;;;;;;4.70;4.20;;;;;;;7.60;100.00;95829.50;5009583;28;105540;-61
2023/03/23 04:01:01;;;;;;;7.63;4.57;;;;;;;7.50;100.00;95832.00;5008911;28;102092;-61
2023/03/23 04:03:39;;;;;;;5.10;4.60;;;;;;;7.43;100.00;95829.56;5009127;28;105269;-61
2023/03/23 04:06:14;;;;;;;6.07;4.73;;;;;;;7.54;100.00;95836.59;5047024;27;101901;-61
2023/03/23 04:08:44;;;;;;;8.10;5.13;;;;;;;7.48;100.00;95842.81;5011173;28;102378;-61
2023/03/23 04:11:13;;;;;;;4.93;4.27;;;;;;;7.43;100.00;95848.06;5016096;28;102557;-61
2023/03/23 04:13:41;;;;;;;5.27;4.63;;;;;;;7.44;100.00;95847.03;5029561;28;101853;-61
2023/03/23 04:16:22;;;;;;;5.70;4.67;;;;;;;7.50;100.00;95851.34;5015099;28;105295;-61
2023/03/23 04:18:50;;;;;;;6.37;4.70;;;;;;;7.49;100.00;95852.38;5026998;28;104537;-61
2023/03/23 04:21:18;;;;;;;6.50;4.70;;;;;;;7.49;100.00;95856.88;5015579;28;101709;-61
2023/03/23 04:24:28;;;;;;;4.63;4.20;;;;;;;7.53;100.00;95853.47;5031826;28;105367;-61
2023/03/23 04:26:55;;;;;;;4.33;3.80;;;;;;;7.46;100.00;95865.28;5029681;28;101973;-61
2023/03/23 04:29:27;;;;;;;4.37;3.97;;;;;;;7.23;100.00;95860.19;5028797;28;105066;-61
2023/03/23 04:31:57;;;;;;;5.93;4.30;;;;;;;7.30;100.00;95866.13;5029979;27;103707;-61
2023/03/23 04:35:22;;;;;;;5.00;4.03;;;;;;;7.13;100.00;95852.91;5023600;28;101965;-61
2023/03/23 04:37:57;;;;;;;3.60;3.30;;;;;;;7.03;100.00;95858.03;5009473;28;103978;-61
2023/03/23 04:40:25;;;;;;;5.30;3.90;;;;;;;6.91;100.00;95859.16;5021580;28;104762;-61
2023/03/23 04:43:26;;;;;;;4.50;3.90;;;;;;;7.09;100.00;95861.56;5029417;28;101936;-61
2023/03/23 04:46:12;;;;;;;4.80;3.90;;;;;;;6.95;100.00;95869.03;5029203;28;105617;-61
2023/03/23 04:48:39;;;;;;;4.53;4.13;;;;;;;6.96;100.00;95862.69;5030925;28;105805;-61
2023/03/23 04:51:13;;;;;;;4.30;3.90;;;;;;;6.97;100.00;95864.28;5014934;28;105324;-61
2023/03/23 04:53:58;;;;;;;4.90;4.40;;;;;;;6.86;100.00;95861.72;5028544;28;105202;-61
2023/03/23 04:56:31;;;;;;;4.63;4.10;;;;;;;6.83;100.00;95862.22;5029447;28;101702;-61
2023/03/23 04:59:06;;;;;;;4.83;4.13;;;;;;;6.71;100.00;95864.91;5029531;28;103929;-61
2023/03/23 05:01:45;;;;;;;4.70;4.30;;;;;;;6.48;100.00;95865.03;5029978;27;103083;-61
2023/03/23 05:04:20;;;;;;;5.67;4.80;;;;;;;6.57;100.00;95862.81;5029288;28;101748;-61
2023/03/23 05:07:02;;;;;;;4.00;3.60;;;;;;;6.48;100.00;95858.94;5010730;28;105066;-61
2023/03/23 05:09:33;;;;;;;4.80;4.30;;;;;;;6.65;100.00;95865.06;5007170;28;105455;-61
2023/03/23 05:12:06;;;;;;;4.50;4.10;;;;;;;6.60;100.00;95862.34;5016535;28;101938;-61
2023/03/23 05:14:48;;;;;;;5.33;4.10;;;;;;;6.65;100.00;95865.06;5007902;28;105050;-61
2023/03/23 05:17:20;;;;;;;5.47;4.43;;;;;;;6.65;100.00;95859.78;5008339;28;101853;-61
2023/03/23 05:19:51;;;;;;;5.47;4.43;;;;;;;6.67;100.00;95860.34;5014009;28;105194;-61
2023/03/23 05:22:33;;;;;;;6.07;4.60;;;;;;;6.66;100.00;95856.09;5027798;28;104930;-61
2023/03/23 05:25:03;;;;;;;5.27;4.20;;;;;;;6.68;100.00;95861.94;5012391;28;103607;-61
2023/03/23 05:27:34;;;;;;;4.77;4.10;;;;;;;6.61;100.00;95862.09;5008090;28;104884;-61
2023/03/23 05:30:15;;;;;;;6.83;5.50;;;;;;;6.75;100.00;95862.59;5007461;28;105387;-61
2023/03/23 05:32:44;;;;;;;5.33;4.60;;;;;;;6.82;100.00;95856.09;5008553;28;102149;-61
2023/03/23 05:35:36;;;;;;;6.07;4.63;;;;;;;6.88;100.00;95864.94;5011073;28;105141;-61
2023/03/23 05:38:04;;;;;;;5.10;4.63;;;;;;;6.80;100.00;95860.03;5008021;28;102091;-61
2023/03/23 05:40:32;;;;;;;6.07;4.80;;;;;;;6.71;100.00;95858.84;5007005;28;103769;-61
2023/03/23 05:43:08;;;;;;;6.43;4.37;;;;;;;6.84;100.00;95864.63;5005881;28;105729;-61
2023/03/23 05:45:54;;;;;;;8.93;4.67;;;;;;;6.80;100.00;95873.25;5037756;27;102124;-61
2023/03/23 05:48:21;;;;;;;8.30;4.30;;;;;;;6.90;100.00;95876.88;5010369;28;105583;-61
2023/03/23 05:50:48;;;;;;;4.63;4.23;;;;;;;6.92;100.00;95877.41;5010623;28;105956;-62
2023/03/23 05:53:43;;;;;;;8.13;5.00;;;;;;;7.07;100.00;95879.50;5012509;28;101822;-62
2023/03/23 05:56:12;;;;;;;5.67;4.57;;;;;;;7.22;100.00;95871.81;5011313;28;104793;-62
2023/03/23 05:59:08;;;;;;;5.27;4.43;;;;;;;7.34;100.00;95880.44;5013469;28;102081;-61
2023/03/23 06:01:36;;;;;;;6.40;4.67;;;;;;;7.34;100.00;95875.16;5011385;28;105089;-65
2023/03/23 06:04:41;;;;;;;5.80;5.20;;;;;;;7.49;100.00;95883.31;5010681;28;105332;-62
2023/03/23 06:07:16;;;;;;;6.90;4.80;;;;;;;7.63;100.00;95887.22;5010899;28;101977;-61
2023/03/23 06:09:52;;;;;;;5.67;5.17;;;;;;;7.76;100.00;95884.22;5011237;28;105085;-61
2023/03/23 06:12:25;;;;;;;6.27;4.90;;;;;;;7.89;100.00;95886.50;5008838;28;102424;-61
2023/03/23 06:15:03;;;;;;;5.83;4.60;;;;;;;8.04;100.00;95889.34;5009442;28;101800;-62
2023/03/23 06:17:55;;;;;;;6.80;5.13;;;;;;;8.17;100.00;95888.97;5012304;28;103857;-62
2023/03/23 06:20:24;;;;;;;5.23;4.67;;;;;;;8.22;100.00;95883.75;5020515;28;105531;-62
2023/03/23 06:23:30;;;;;;;10.83;5.77;;;;;;;8.20;100.00;95896.47;5023322;28;104818;-61
2023/03/23 06:26:00;;;;;;;4.83;4.33;;;;;;;8.19;100.00;95892.19;5009950;28;105248;-61
2023/03/23 06:28:28;;;;;;;5.43;4.10;;;;;;;8.35;100.00;95891.34;5044251;27;101909;-61
2023/03/23 06:31:00;;;;;;;6.03;4.87;;;;;;;8.37;100.00;95902.47;5010686;28;105212;-61
2023/03/23 06:33:40;;;;;;;5.20;4.70;;;;;;;8.45;100.00;95899.41;5010521;28;105848;-61
2023/03/23 06:36:43;;;;;;;7.43;5.00;;;;;;;8.55;100.00;95900.31;4969216;28;102441;-61
2023/03/23 06:39:15;;;;;;;5.40;4.90;;;;;;;8.62;100.00;95889.53;5000484;28;105030;-61
2023/03/23 06:42:03;;;;;;;5.90;4.87;;;;;;;8.67;100.00;95908.13;4989795;28;105365;-61
2023/03/23 06:44:34;;;;;;;9.37;5.50;;;;;;;8.58;100.00;95905.13;4994291;28;101858;-61
2023/03/23 06:47:03;;;;;;;8.03;5.50;;;;;;;8.67;100.00;95902.81;5005530;28;105782;-61
2023/03/23 06:49:35;;;;;;;7.43;5.47;;;;;;;8.74;100.00;95904.22;5015115;28;101950;-61
2023/03/23 06:52:25;;;;;;;10.77;5.93;;;;;;;8.91;100.00;95896.97;5023484;28;103760;-61
2023/03/23 06:55:36;;;;;;;6.63;5.30;;;;;;;8.97;100.00;95911.06;5027864;28;105326;-61
2023/03/23 06:58:05;;;;;;;7.47;4.97;;;;;;;9.13;100.00;95910.13;5026273;27;101805;-61
2023/03/23 07:00:33;;;;;;;9.17;5.27;;;;;;;9.12;100.00;95911.19;5016030;28;104081;-61
2023/03/23 07:03:04;;;;;;;14.70;6.23;;;;;;;9.12;100.00;95906.69;5009899;28;105548;-61
2023/03/23 07:05:33;;;;;;;6.30;5.60;;;;;;;9.15;100.00;95900.06;4994971;28;101746;-61
2023/03/23 07:08:01;;;;;;;8.23;5.83;;;;;;;9.11;100.00;95905.06;5013146;28;105337;-61
2023/03/23 07:10:35;;;;;;;7.47;6.00;;;;;;;9.19;100.00;95901.16;5010293;28;101787;-60
2023/03/23 07:13:26;;;;;;;8.90;6.17;;;;;;;9.25;100.00;95900.16;5010377;28;104583;-60
2023/03/23 07:16:00;;;;;;;12.07;7.67;;;;;;;9.34;100.00;95899.44;5009806;28;105592;-60
2023/03/23 07:18:29;;;;;;;11.50;7.40;;;;;;;9.42;100.00;95892.84;5021654;28;102032;-60
2023/03/23 07:20:58;;;;;;;11.27;6.97;;;;;;;9.47;100.00;95888.38;5030568;28;104020;-60
2023/03/23 07:23:31;;;;;;;11.07;6.30;;;;;;;9.55;100.00;95889.78;5027814;28;105087;-60
2023/03/23 07:26:03;;;;;;;8.93;6.30;;;;;;;9.60;100.00;95882.63;5010360;28;101958;-60
2023/03/23 07:28:36;;;;;;;8.33;5.60;;;;;;;9.69;100.00;95894.38;5022611;28;105396;-60
2023/03/23 07:31:14;;;;;;;7.13;5.00;;;;;;;9.71;100.00;95902.09;5032989;28;103627;-60
2023/03/23 07:37:15;;;;;;;6.47;5.53;;;;;;;9.96;100.00;95902.22;5014162;28;105587;-61
2023/03/23 07:39:47;;;;;;;5.87;5.23;;;;;;;10.01;100.00;95899.59;5019122;28;101913;-61
2023/03/23 07:42:14;;;;;;;6.67;4.73;;;;;;;10.07;100.00;95901.22;5010901;28;105105;-61
2023/03/23 07:45:08;;;;;;;12.00;4.93;;;;;;;10.24;100.00;95892.03;5010576;28;105250;-61
2023/03/23 07:47:36;;;;;;;6.23;4.97;;;;;;;10.32;100.00;95890.72;5009852;28;101842;-61
2023/03/23 07:50:04;;;;;;;6.47;5.30;;;;;;;10.28;100.00;95885.13;5016892;28;104983;-61
2023/03/23 07:52:40;;;;;;;7.80;5.27;;;;;;;10.14;100.00;95875.25;4989694;28;103738;-61
2023/03/23 07:55:11;;;;;;;8.83;6.27;;;;;;;10.06;100.00;95865.91;5008796;28;101865;-60
2023/03/23 07:58:08;;;;;;;7.67;5.60;;;;;;;10.05;100.00;95859.00;5004635;28;103757;-62
2023/03/23 08:00:35;;;;;;;7.40;5.20;;;;;;;10.30;100.00;95871.59;5029117;28;103584;-62
2023/03/23 08:03:19;;;;;;;9.03;5.60;;;;;;;10.48;100.00;95873.78;5027768;28;105255;-61
2023/03/23 08:06:10;;;;;;;5.90;5.20;;;;;;;10.72;100.00;95873.03;4995080;28;105583;-62
2023/03/23 08:08:53;;;;;;;7.30;4.93;;;;;;;10.93;100.00;95871.19;5014337;28;102207;-62
2023/03/23 08:11:52;;;;;;;6.37;4.50;;;;;;;11.09;100.00;95876.28;4967457;28;102279;-67
2023/03/23 08:14:45;;;;;;;4.30;3.90;;;;;;;11.30;100.00;95874.41;4985230;28;103078;-62
2023/03/23 08:17:32;;;;;;;6.20;3.97;;;;;;;11.73;100.00;95877.28;5009134;28;102065;-63
2023/03/23 08:20:16;;;;;;;4.30;3.90;;;;;;;11.87;100.00;95880.19;5023603;28;103732;-63
2023/03/23 08:23:02;;;;;;;6.70;4.20;;;;;;;11.97;100.00;95873.00;5027528;27;101833;-62
2023/03/23 08:25:41;;;;;;;4.33;3.93;;;;;;;12.38;100.00;95870.97;5026210;28;105043;-63
2023/03/23 08:28:26;;;;;;;5.00;4.47;;;;;;;12.59;100.00;95864.47;5011529;28;102335;-62
2023/03/23 08:31:18;;;;;;;5.43;4.30;;;;;;;13.07;100.00;95871.66;5005861;28;102333;-63
2023/03/23 08:34:59;;;;;;;4.13;3.70;;;;;;;13.09;100.00;95874.84;4981318;28;102692;-62
2023/03/23 08:37:38;;;;;;;4.93;3.80;;;;;;;13.18;100.00;95863.28;4970492;28;102492;-62
2023/03/23 08:40:26;;;;;;;4.13;3.70;;;;;;;12.95;100.00;95863.16;5025768;28;101989;-62
2023/03/23 08:43:10;;;;;;;3.63;3.33;;;;;;;13.24;100.00;95866.75;5031078;28;105710;-62
2023/03/23 08:45:55;;;;;;;4.80;3.70;;;;;;;13.34;100.00;95871.97;5009683;28;102178;-62
2023/03/23 08:48:43;;;;;;;4.33;3.93;;;;;;;13.45;100.00;95879.63;4979822;28;103841;-63
2023/03/23 08:51:28;;;;;;;7.67;3.50;;;;;;;13.48;100.00;95870.25;4990390;28;102815;-63
2023/03/23 08:54:17;;;;;;;3.83;3.53;;;;;;;13.67;100.00;95873.81;5028998;28;102160;-61
2023/03/23 08:57:02;;;;;;;5.33;3.70;;;;;;;13.88;100.00;95869.88;5022439;28;101835;-61
2023/03/23 09:00:15;;;;;;;4.70;3.43;;;;;;;13.98;100.00;95873.25;5026318;28;102485;-61
2023/03/23 09:03:03;;;;;;;4.67;3.40;;;;;;;14.00;100.00;95873.75;4998166;27;101926;-61
2023/03/23 09:05:50;;;;;;;3.77;3.43;;;;;;;14.23;100.00;95866.84;5016996;27;103175;-62
2023/03/23 09:08:18;;;;;;;3.93;3.47;;;;;;;14.35;100.00;95873.38;5013692;28;105433;-62
2023/03/23 09:10:45;;;;;;;5.13;3.80;;;;;;;14.41;100.00;95868.75;5010212;28;102219;-62
2023/03/23 09:13:21;;;;;;;4.97;3.90;;;;;;;14.23;100.00;95872.19;5008335;28;105702;-62
2023/03/23 09:15:50;;;;;;;3.93;3.63;;;;;;;14.31;100.00;95866.19;5011416;28;101903;-62
2023/03/23 09:18:18;;;;;;;4.27;3.47;;;;;;;14.32;100.00;95862.44;4994862;28;103544;-62
2023/03/23 09:20:45;;;;;;;4.53;3.53;;;;;;;14.50;100.00;95867.06;5009404;28;102574;-62
2023/03/23 09:23:16;;;;;;;4.53;3.13;;;;;;;14.84;100.00;95867.66;5011307;28;102232;-62
2023/03/23 09:25:43;;;;;;;4.03;3.73;;;;;;;15.20;100.00;95868.72;5030604;28;102307;-62
2023/03/23 09:28:10;;;;;;;6.50;3.50;;;;;;;15.57;100.00;95863.31;5011570;28;103938;-62
2023/03/23 09:30:40;;;;;;;4.00;3.60;;;;;;;15.65;100.00;95862.66;5026218;28;102229;-62
2023/03/23 09:33:12;;;;;;;3.23;3.03;;;;;;;16.14;100.00;95862.81;5012797;28;102769;-62
2023/03/23 09:35:41;;;;;;;5.03;3.40;;;;;;;16.08;100.00;95851.38;5030551;28;102381;-63
2023/03/23 09:38:12;;;;;;;4.53;3.27;;;;;;;16.05;100.00;95860.03;5011779;28;105377;-62
2023/03/23 09:40:48;;;;;;;5.27;3.37;;;;;;;16.18;100.00;95853.09;5020205;28;105648;-62
2023/03/23 09:43:51;;;;;;;3.87;3.57;;;;;;;16.65;100.00;95844.63;5027702;28;101809;-63
2023/03/23 09:46:30;;;;;;;4.80;3.40;;;;;;;16.82;100.00;95842.91;4935001;28;105388;-62
2023/03/23 09:49:01;;;;;;;4.30;3.80;;;;;;;16.94;100.00;95845.06;4950862;28;102528;-62
2023/03/23 09:51:40;;;;;;;5.57;3.40;;;;;;;17.00;93.11;95838.47;4951751;28;102318;-62
2023/03/23 09:54:16;;;;;;;3.77;3.43;;;;;;;17.14;96.29;95844.59;4952933;28;102895;-63
2023/03/23 09:56:43;;;;;;;5.53;3.60;;;;;;;17.16;91.41;95851.25;4951277;28;101866;-63
2023/03/23 09:59:15;;;;;;;7.87;3.23;;;;;;;17.25;93.88;95849.44;4931322;28;105213;-62
2023/03/23 10:01:46;;;;;;;3.77;3.47;;;;;;;17.31;86.44;95845.53;4928186;28;105767;-63
2023/03/23 10:04:34;;;;;;;4.33;3.40;;;;;;;17.40;85.90;95843.72;4931581;28;102273;-62
2023/03/23 10:07:10;;;;;;;4.57;3.30;;;;;;;17.55;82.70;95839.88;4940466;28;102895;-63
2023/03/23 10:09:37;;;;;;;4.43;3.47;;;;;;;17.55;81.14;95845.25;4950404;28;102664;-62
2023/03/23 10:12:14;;;;;;;4.27;3.53;;;;;;;17.86;80.34;95837.97;4934630;28;101864;-62
2023/03/23 10:15:03;;;;;;;5.00;2.90;;;;;;;18.08;85.04;95833.34;4934794;28;105389;-62
2023/03/23 10:17:36;;;;;;;4.07;3.33;;;;;;;18.18;74.46;95834.94;4953775;28;101898;-63
2023/03/23 10:20:20;;;;;;;3.43;3.00;;;;;;;18.34;75.51;95825.38;4965421;28;104730;-62
2023/03/23 10:23:15;;;;;;;5.40;3.13;;;;;;;18.59;78.54;95827.34;4997844;28;105750;-61
2023/03/23 10:25:59;;;;;;;4.53;3.00;;;;;;;18.77;82.65;95824.38;5012551;28;102244;-62
2023/03/23 10:28:38;;;;;;;3.67;3.37;;;;;;;18.98;90.78;95828.03;5022714;28;105092;-61
2023/03/23 10:31:11;;;;;;;5.20;3.47;;;;;;;18.80;84.64;95829.13;5032503;27;102750;-61
2023/03/23 10:33:42;;;;;;;7.20;3.67;;;;;;;18.81;77.92;95829.91;5031204;28;102189;-60
2023/03/23 10:36:16;;;;;;;3.73;2.80;;;;;;;18.67;70.97;95818.47;5032058;27;102389;-61
2023/03/23 10:38:46;;;;;;;3.37;3.00;;;;;;;18.88;67.49;95822.16;5026673;28;105973;-61
2023/03/23 10:41:15;;;;;;;5.70;3.37;;;;;;;18.89;64.31;95823.72;5031439;28;105571;-61
2023/03/23 10:44:01;;;;;;;4.17;3.30;;;;;;;18.83;66.26;95822.31;5031291;27;103004;-61
2023/03/23 10:46:36;;;;;;;4.60;3.57;;;;;;;18.53;64.95;95824.00;5029386;28;102039;-61
2023/03/23 10:49:08;;;;;;;5.83;3.70;;;;;;;18.73;64.57;95830.69;5011146;28;105540;-61
2023/03/23 10:51:41;;;;;;;4.13;3.37;;;;;;;18.77;59.90;95823.56;5012794;28;102603;-60
2023/03/23 10:54:40;;;;;;;5.90;3.80;;;;;;;18.35;62.43;95826.94;5032520;27;101971;-61
2023/03/23 10:57:21;;;;;;;7.43;4.17;;;;;;;18.37;62.40;95828.22;5013473;28;105602;-62
2023/03/23 10:59:48;;;;;;;6.87;4.27;;;;;;;18.41;61.19;95837.28;5010252;28;105331;-62
2023/03/23 11:02:19;;;;;;;6.43;4.40;;;;;;;18.45;58.55;95837.44;5016687;28;101965;-62
2023/03/23 11:04:58;;;;;;;5.30;4.47;;;;;;;18.40;56.66;95834.88;5011837;28;102662;-62
2023/03/23 11:07:30;;;;;;;4.20;3.80;;;;;;;18.58;57.22;95833.84;5039763;27;102017;-62
2023/03/23 11:10:04;;;;;;;4.90;4.50;;;;;;;18.71;54.47;95841.00;5032227;27;102897;-62
2023/03/23 11:12:35;;;;;;;4.47;4.07;;;;;;;18.65;53.61;95834.94;5031192;27;102464;-62
2023/03/23 11:15:22;;;;;;;5.87;4.23;;;;;;;18.73;54.06;95839.56;5013789;28;101876;-62
2023/03/23 11:17:58;;;;;;;4.87;4.37;;;;;;;18.67;53.75;95840.84;5017097;28;101817;-62
2023/03/23 11:20:28;;;;;;;5.40;4.10;;;;;;;18.72;53.95;95846.06;5016237;28;102621;-62
2023/03/23 11:23:09;;;;;;;6.03;4.20;;;;;;;18.82;53.82;95853.84;5031437;28;101926;-62
2023/03/23 11:25:52;;;;;;;5.63;4.30;;;;;;;18.74;53.82;95849.22;5015720;27;102304;-62
2023/03/23 11:28:20;;;;;;;4.23;3.73;;;;;;;18.63;52.99;95849.88;5013628;28;101961;-63
2023/03/23 11:30:47;;;;;;;6.30;4.20;;;;;;;18.49;52.79;95849.19;5015830;28;105605;-62
2023/03/23 11:33:19;;;;;;;4.83;4.33;;;;;;;18.70;51.28;95855.56;5030602;27;102662;-63
2023/03/23 11:35:47;;;;;;;4.37;3.97;;;;;;;18.97;50.61;95852.59;5016371;27;101962;-62
2023/03/23 11:38:20;;;;;;;5.20;3.90;;;;;;;18.91;51.08;95861.94;5022376;28;102557;-63
2023/03/23 11:40:50;;;;;;;5.93;4.20;;;;;;;18.77;50.68;95856.69;5009594;28;106241;-61
2023/03/23 11:43:24;;;;;;;4.93;4.00;;;;;;;18.68;51.54;95855.88;5019131;28;102252;-62
2023/03/23 11:45:59;;;;;;;5.10;3.90;;;;;;;18.78;52.30;95865.56;5010184;28;105112;-63
2023/03/23 11:48:35;;;;;;;6.37;4.60;;;;;;;18.99;54.23;95863.84;5024447;28;105449;-62
2023/03/23 11:51:07;;;;;;;8.20;5.07;;;;;;;19.13;54.65;95859.88;5031382;28;102832;-62
2023/03/23 11:56:57;;;;;;;7.37;4.00;;;;;;;19.41;55.32;95850.41;5027834;28;101957;-63
2023/03/23 11:59:33;;;;;;;4.90;4.40;;;;;;;19.41;51.81;95850.41;5030096;28;105279;-62
2023/03/23 12:02:09;;;;;;;4.87;4.37;;;;;;;19.46;50.87;95844.84;5010579;28;105846;-63
2023/03/23 12:04:59;;;;;;;7.17;4.80;;;;;;;19.73;50.25;95851.81;5010120;28;101947;-62
2023/03/23 12:07:54;;;;;;;6.80;4.20;;;;;;;20.07;51.92;95843.63;5013037;28;104992;-63
2023/03/23 12:10:32;;;;;;;5.20;3.90;;;;;;;20.27;49.34;95841.00;5008149;28;103776;-62
2023/03/23 12:13:32;;;;;;;8.60;4.80;;;;;;;20.46;47.37;95830.59;5012853;28;101803;-62
2023/03/23 12:16:11;;;;;;;10.27;5.10;;;;;;;20.44;47.09;95830.13;5009629;28;105639;-62